Time;durP1;ratioP1;P1;durP2;ratioP2;P2;SDS_P1;SDS_P2;PMS_P1;PMS_P2;Temp;Humidity;BMP_temperature;BMP_pressure;BME280_temperature;BME280_humidity;BME280_pressure;Samples;Min_cycle;Max_cycle;Signal;HPM_P1;HPM_P2
2022/03/06 00:00:33;;;;;;;17.90;9.82;;;;;;;0.69;65.91;101800.53;4948711;28;20061;-84
2022/03/06 00:03:02;;;;;;;15.80;9.88;;;;;;;0.73;66.18;101804.16;4944027;28;20100;-82
2022/03/06 00:05:28;;;;;;;18.45;10.52;;;;;;;0.74;66.25;101811.94;4946533;28;20057;-81
2022/03/06 00:07:56;;;;;;;16.30;9.30;;;;;;;0.80;66.52;101806.22;4958181;28;20078;-83
2022/03/06 00:10:23;;;;;;;14.48;9.07;;;;;;;0.82;67.26;101810.66;4938256;28;20092;-82
2022/03/06 00:12:50;;;;;;;12.68;8.10;;;;;;;0.85;66.61;101815.09;4963125;28;20179;-84
2022/03/06 00:15:16;;;;;;;13.30;8.52;;;;;;;0.88;66.88;101817.78;4964443;28;20516;-82
2022/03/06 00:17:43;;;;;;;11.45;9.23;;;;;;;0.89;66.79;101816.13;4944197;28;20141;-81
2022/03/06 00:20:10;;;;;;;18.52;9.38;;;;;;;0.93;67.27;101813.75;4964554;28;20050;-82
2022/03/06 00:22:38;;;;;;;16.42;9.95;;;;;;;0.98;67.61;101809.72;4945877;28;20501;-81
2022/03/06 00:25:06;;;;;;;14.68;9.23;;;;;;;1.02;67.11;101809.84;4943424;28;20496;-86
2022/03/06 00:27:33;;;;;;;13.35;8.90;;;;;;;1.01;67.05;101808.09;4964137;28;20132;-81
2022/03/06 00:30:00;;;;;;;14.73;9.10;;;;;;;0.97;68.00;101807.06;4950933;28;20466;-86
2022/03/06 00:32:27;;;;;;;15.15;8.68;;;;;;;0.94;67.67;101807.78;4965520;28;20062;-82
2022/03/06 00:34:54;;;;;;;15.00;9.50;;;;;;;0.91;67.85;101810.22;4943581;28;20046;-84
2022/03/06 00:37:20;;;;;;;14.77;8.75;;;;;;;0.89;68.28;101811.84;4958983;28;20133;-83
2022/03/06 00:39:47;;;;;;;12.02;7.95;;;;;;;0.91;68.38;101809.34;4945839;28;20046;-82
2022/03/06 00:42:16;;;;;;;14.98;9.65;;;;;;;0.94;69.58;101812.03;4943857;28;20053;-84
2022/03/06 00:44:42;;;;;;;12.45;9.00;;;;;;;0.98;68.84;101814.00;4965514;28;20148;-81
2022/03/06 00:47:09;;;;;;;10.93;8.63;;;;;;;1.01;69.08;101819.28;4965068;28;20070;-83
2022/03/06 00:49:36;;;;;;;10.52;7.95;;;;;;;1.03;69.05;101821.94;4960538;28;20057;-83
2022/03/06 00:52:04;;;;;;;14.43;9.52;;;;;;;1.07;69.62;101823.84;4948382;28;20042;-81
2022/03/06 00:54:31;;;;;;;15.48;8.98;;;;;;;1.07;68.48;101822.19;4940862;28;20058;-81
2022/03/06 00:56:58;;;;;;;13.40;9.13;;;;;;;1.10;69.03;101826.59;4960412;28;20060;-85
2022/03/06 00:59:25;;;;;;;13.95;8.30;;;;;;;1.10;69.62;101829.19;4953967;28;20065;-82
2022/03/06 01:01:52;;;;;;;12.85;8.90;;;;;;;1.12;69.23;101833.59;4965799;28;20061;-83
2022/03/06 01:04:18;;;;;;;11.73;7.97;;;;;;;1.13;69.32;101829.31;4961283;28;20050;-82
2022/03/06 01:06:46;;;;;;;12.82;8.38;;;;;;;1.17;69.74;101830.34;4960146;28;20535;-85
2022/03/06 01:09:13;;;;;;;15.13;8.13;;;;;;;1.17;69.23;101833.81;4941895;28;20049;-82
2022/03/06 01:11:40;;;;;;;14.95;9.48;;;;;;;1.19;69.40;101826.13;4967562;28;20096;-82
2022/03/06 01:14:06;;;;;;;12.13;8.52;;;;;;;1.18;69.92;101830.41;4964364;28;20452;-83
2022/03/06 01:16:33;;;;;;;13.95;8.52;;;;;;;1.19;69.83;101839.94;4963990;28;20097;-83
2022/03/06 01:18:59;;;;;;;16.08;8.88;;;;;;;1.20;69.64;101839.13;4950972;28;20050;-81
2022/03/06 01:21:26;;;;;;;12.20;8.27;;;;;;;1.21;70.03;101837.41;4958785;28;20134;-82
2022/03/06 01:23:52;;;;;;;13.25;8.80;;;;;;;1.19;70.33;101839.94;4965439;28;20046;-85
2022/03/06 01:26:20;;;;;;;13.60;8.40;;;;;;;1.17;70.59;101835.50;4955763;28;20152;-82
2022/03/06 01:28:46;;;;;;;11.82;8.63;;;;;;;1.17;70.96;101840.66;4964852;28;20046;-82
2022/03/06 01:31:13;;;;;;;11.90;6.93;;;;;;;1.17;70.86;101843.25;4957351;28;20047;-82
2022/03/06 01:33:40;;;;;;;13.57;7.53;;;;;;;1.15;70.89;101835.44;4947514;28;20809;-84
2022/03/06 01:36:07;;;;;;;12.82;8.32;;;;;;;1.11;71.31;101842.13;4968318;28;20561;-81
2022/03/06 01:38:33;;;;;;;10.55;6.75;;;;;;;1.11;71.51;101849.00;4951060;28;20046;-82
2022/03/06 01:41:00;;;;;;;13.63;8.38;;;;;;;1.09;71.67;101851.47;4943659;28;20059;-83
2022/03/06 01:43:27;;;;;;;11.02;7.28;;;;;;;1.07;71.06;101853.13;4969314;28;20054;-82
2022/03/06 01:45:54;;;;;;;15.20;8.20;;;;;;;1.06;71.92;101848.75;4959790;28;20050;-84
2022/03/06 01:48:21;;;;;;;14.80;7.68;;;;;;;1.05;71.37;101840.97;4948579;28;20062;-85
2022/03/06 01:50:48;;;;;;;10.93;7.00;;;;;;;1.04;71.57;101850.38;4963576;28;20054;-82
2022/03/06 01:53:15;;;;;;;10.55;7.57;;;;;;;1.04;71.93;101846.91;4958448;28;20046;-81
2022/03/06 01:55:43;;;;;;;11.05;7.05;;;;;;;1.03;71.71;101850.31;4964236;28;20100;-82
2022/03/06 01:58:12;;;;;;;10.77;8.23;;;;;;;1.03;71.70;101848.63;4960286;28;20050;-83
2022/03/06 02:00:47;;;;;;;13.98;7.88;;;;;;;1.03;72.13;101847.72;4953548;28;20046;-81
2022/03/06 02:03:14;;;;;;;14.75;7.75;;;;;;;1.04;71.93;101849.50;4960384;28;20046;-83
2022/03/06 02:05:42;;;;;;;13.98;6.93;;;;;;;1.06;72.52;101846.19;4940266;28;20046;-83
2022/03/06 02:08:08;;;;;;;11.18;7.85;;;;;;;1.03;72.27;101848.63;4966440;28;20057;-81
2022/03/06 02:10:36;;;;;;;11.52;7.63;;;;;;;1.02;72.23;101844.28;4962600;28;20129;-81
2022/03/06 02:13:03;;;;;;;9.68;6.97;;;;;;;1.03;72.52;101847.72;4966615;28;20073;-81
2022/03/06 02:15:30;;;;;;;14.63;8.27;;;;;;;1.03;72.59;101835.72;4968927;28;20054;-82
2022/03/06 02:17:57;;;;;;;11.68;6.72;;;;;;;1.07;71.91;101841.91;4961493;28;20050;-81
2022/03/06 02:20:26;;;;;;;13.07;7.18;;;;;;;1.08;71.87;101834.25;4949911;28;20062;-81
2022/03/06 02:22:55;;;;;;;10.75;7.47;;;;;;;1.10;71.87;101836.91;4965094;28;20296;-81
2022/03/06 02:25:29;;;;;;;9.98;7.03;;;;;;;1.12;72.33;101832.69;4944910;28;20052;-84
2022/03/06 02:27:58;;;;;;;15.70;7.35;;;;;;;1.11;72.09;101831.81;4968217;28;20046;-82
2022/03/06 02:30:32;;;;;;;9.20;6.68;;;;;;;1.11;72.18;101830.94;4954741;28;20066;-85
2022/03/06 02:33:02;;;;;;;12.23;8.05;;;;;;;1.08;72.01;101825.63;4964286;28;20162;-83
2022/03/06 02:35:29;;;;;;;9.73;6.75;;;;;;;1.06;72.14;101830.72;4953967;28;20137;-81
2022/03/06 02:37:56;;;;;;;10.30;9.13;;;;;;;1.06;72.45;101837.56;4960068;28;20108;-82
2022/03/06 02:40:23;;;;;;;13.77;7.63;;;;;;;1.06;72.55;101828.13;4955242;28;20927;-82
2022/03/06 02:42:52;;;;;;;9.25;6.15;;;;;;;1.04;72.27;101826.28;4949285;28;20050;-84
2022/03/06 02:45:23;;;;;;;15.90;8.25;;;;;;;1.06;72.29;101832.41;4970676;28;20149;-84
2022/03/06 02:47:52;;;;;;;11.23;7.22;;;;;;;1.04;72.62;101827.16;4968387;28;20528;-84
2022/03/06 02:50:22;;;;;;;10.18;7.15;;;;;;;1.03;72.40;101824.50;4946725;28;20058;-81
2022/03/06 02:52:53;;;;;;;11.23;6.25;;;;;;;1.04;71.88;101828.88;4964717;28;20424;-82
2022/03/06 02:55:20;;;;;;;9.90;6.53;;;;;;;1.05;72.28;101820.31;4958635;28;20482;-82
2022/03/06 02:57:47;;;;;;;9.75;6.18;;;;;;;1.07;72.17;101824.75;4965416;28;20146;-83
2022/03/06 03:00:18;;;;;;;8.95;5.25;;;;;;;1.05;71.96;101825.47;4968324;28;20049;-81
2022/03/06 03:02:46;;;;;;;8.38;5.85;;;;;;;1.02;72.08;101818.47;4962746;28;20436;-83
2022/03/06 03:05:14;;;;;;;7.15;5.88;;;;;;;1.04;72.43;101831.44;4946905;28;20509;-84
2022/03/06 03:07:42;;;;;;;10.38;5.70;;;;;;;1.02;71.64;101825.31;4947905;28;20057;-84
2022/03/06 03:10:12;;;;;;;7.28;5.70;;;;;;;0.98;71.80;101822.59;4961139;28;20092;-83
2022/03/06 03:12:39;;;;;;;7.60;5.63;;;;;;;0.97;71.72;101822.53;4963363;28;20113;-84
2022/03/06 03:15:07;;;;;;;8.20;5.00;;;;;;;0.95;72.30;101827.63;4962711;28;20043;-82
2022/03/06 03:17:34;;;;;;;8.32;5.93;;;;;;;0.93;71.62;101818.91;4966167;28;20050;-81
2022/03/06 03:20:00;;;;;;;8.25;5.53;;;;;;;0.94;71.70;101818.09;4948677;28;20059;-84
2022/03/06 03:22:27;;;;;;;7.88;5.47;;;;;;;0.94;71.78;101818.09;4951871;28;20394;-82
2022/03/06 03:24:54;;;;;;;7.88;5.45;;;;;;;0.94;72.01;101815.53;4952334;28;20136;-82
2022/03/06 03:27:20;;;;;;;6.68;4.93;;;;;;;0.96;72.11;101818.19;4959212;28;20050;-84
2022/03/06 03:29:47;;;;;;;9.30;4.90;;;;;;;0.95;71.88;101818.97;4968009;28;20050;-81
2022/03/06 03:32:14;;;;;;;8.13;4.95;;;;;;;0.95;71.82;101827.63;4948590;28;20057;-83
2022/03/06 03:34:40;;;;;;;6.50;5.80;;;;;;;0.95;71.90;101829.28;4945476;28;20512;-84
2022/03/06 03:37:07;;;;;;;13.35;6.35;;;;;;;0.96;72.15;101818.19;4945519;28;20045;-83
2022/03/06 03:39:33;;;;;;;9.20;5.30;;;;;;;0.96;71.76;101829.34;4946089;28;20196;-81
2022/03/06 03:42:00;;;;;;;7.40;5.25;;;;;;;0.96;71.48;101831.06;4947585;28;20088;-81
2022/03/06 03:44:26;;;;;;;6.50;5.80;;;;;;;0.96;71.34;101824.19;4966734;28;20066;-82
2022/03/06 03:46:53;;;;;;;8.48;6.28;;;;;;;0.94;71.27;101819.78;4961410;28;20093;-82
2022/03/06 03:49:19;;;;;;;6.32;5.47;;;;;;;0.94;71.76;101828.41;4946283;28;20057;-82
2022/03/06 03:51:46;;;;;;;6.95;4.28;;;;;;;0.96;71.35;101833.66;4950870;28;20058;-83
2022/03/06 03:54:13;;;;;;;5.95;4.70;;;;;;;0.95;70.94;101822.47;4957695;28;20054;-81
2022/03/06 03:56:39;;;;;;;7.50;4.15;;;;;;;0.93;71.47;101838.66;4949202;28;20053;-83
2022/03/06 03:59:06;;;;;;;5.80;4.80;;;;;;;0.92;71.25;101842.91;4966940;28;20050;-83
2022/03/06 04:01:32;;;;;;;3.97;3.63;;;;;;;0.90;70.77;101839.41;4953068;28;20050;-82
2022/03/06 04:03:59;;;;;;;6.53;4.60;;;;;;;0.89;71.25;101832.47;4966498;28;20140;-82
2022/03/06 04:06:25;;;;;;;6.43;4.10;;;;;;;0.88;71.22;101841.00;4958586;28;20326;-82
2022/03/06 04:08:52;;;;;;;10.13;4.47;;;;;;;0.87;70.84;101843.50;4961503;28;20042;-84
2022/03/06 04:11:18;;;;;;;6.35;3.60;;;;;;;0.84;70.92;101848.53;4957972;28;20058;-85
2022/03/06 04:13:45;;;;;;;6.95;4.20;;;;;;;0.81;70.47;101844.97;4947914;28;20157;-82
2022/03/06 04:16:11;;;;;;;5.05;4.25;;;;;;;0.77;70.52;101837.00;4951362;28;20077;-83
2022/03/06 04:18:38;;;;;;;5.97;3.50;;;;;;;0.75;70.30;101838.63;4945115;28;20058;-83
2022/03/06 04:21:04;;;;;;;3.75;3.45;;;;;;;0.75;70.72;101843.78;4947852;28;20056;-84
2022/03/06 04:23:31;;;;;;;6.68;3.90;;;;;;;0.76;70.72;101845.56;4963518;28;20067;-82
2022/03/06 04:25:57;;;;;;;5.20;3.55;;;;;;;0.75;70.65;101843.78;4972283;28;20055;-84
2022/03/06 04:28:23;;;;;;;6.10;4.00;;;;;;;0.75;70.79;101846.34;4967440;28;20053;-82
2022/03/06 04:30:50;;;;;;;5.38;3.13;;;;;;;0.74;70.23;101852.31;4964775;28;20053;-82
2022/03/06 04:33:16;;;;;;;6.68;3.28;;;;;;;0.73;70.08;101853.13;4961684;28;20038;-82
2022/03/06 04:35:43;;;;;;;7.18;3.33;;;;;;;0.68;70.08;101852.91;4948315;28;20052;-82
2022/03/06 04:38:09;;;;;;;5.03;2.83;;;;;;;0.65;70.10;101863.03;4955247;28;20052;-81
2022/03/06 04:40:36;;;;;;;5.55;3.42;;;;;;;0.64;70.00;101863.88;4963780;28;20046;-83
2022/03/06 04:43:03;;;;;;;4.25;3.40;;;;;;;0.65;70.29;101860.44;4959166;28;20054;-86
2022/03/06 04:45:30;;;;;;;4.53;3.33;;;;;;;0.66;70.24;101864.81;4965574;28;20050;-84
2022/03/06 04:47:57;;;;;;;5.78;3.28;;;;;;;0.70;70.35;101864.16;4967024;28;20038;-83
2022/03/06 04:50:23;;;;;;;4.85;4.13;;;;;;;0.70;70.29;101864.16;4963210;28;20057;-81
2022/03/06 04:52:50;;;;;;;6.10;4.20;;;;;;;0.71;70.61;101871.09;4963418;28;20367;-83
2022/03/06 04:55:16;;;;;;;5.38;3.08;;;;;;;0.73;70.41;101866.00;4951153;28;20041;-82
2022/03/06 04:57:45;;;;;;;5.38;4.03;;;;;;;0.73;70.18;101861.75;4964341;28;20219;-82
2022/03/06 05:00:13;;;;;;;5.32;4.82;;;;;;;0.70;70.05;101868.44;4952817;28;20153;-81
2022/03/06 05:02:39;;;;;;;6.03;3.78;;;;;;;0.66;70.73;101867.38;4941588;28;20053;-84
2022/03/06 05:05:07;;;;;;;5.82;3.25;;;;;;;0.63;70.20;101873.25;4945733;28;20046;-81
2022/03/06 05:07:34;;;;;;;5.68;3.10;;;;;;;0.61;70.50;101869.75;4947427;28;20073;-81
2022/03/06 05:10:00;;;;;;;6.45;4.65;;;;;;;0.61;70.65;101866.25;4957195;28;20053;-82
2022/03/06 05:12:27;;;;;;;3.75;3.45;;;;;;;0.61;70.81;101871.41;4961215;28;20050;-82
2022/03/06 05:14:53;;;;;;;8.15;4.05;;;;;;;0.59;70.75;101870.47;4950117;28;20050;-84
2022/03/06 05:17:20;;;;;;;8.25;4.97;;;;;;;0.59;71.18;101879.06;4950113;28;20061;-82
2022/03/06 05:19:46;;;;;;;5.30;3.78;;;;;;;0.59;70.89;101876.50;4947252;28;20054;-83
2022/03/06 05:22:13;;;;;;;7.85;3.83;;;;;;;0.57;70.77;101872.06;4958859;28;20058;-82
2022/03/06 05:24:39;;;;;;;5.03;3.65;;;;;;;0.52;71.08;101876.97;4946773;28;20152;-84
2022/03/06 05:27:06;;;;;;;4.88;3.92;;;;;;;0.51;70.66;101874.31;4953290;28;20137;-83
2022/03/06 05:29:32;;;;;;;5.72;3.75;;;;;;;0.49;71.68;101871.69;4951399;28;20061;-82
2022/03/06 05:31:59;;;;;;;6.00;3.92;;;;;;;0.45;71.17;101874.91;4969434;28;20057;-82
2022/03/06 05:34:26;;;;;;;6.18;4.20;;;;;;;0.44;71.29;101879.19;4947004;28;20061;-85
2022/03/06 05:36:52;;;;;;;4.53;3.80;;;;;;;0.43;71.36;101874.81;4942609;28;20054;-82
2022/03/06 05:39:19;;;;;;;4.10;3.65;;;;;;;0.43;70.95;101876.50;4948694;28;20055;-83
2022/03/06 05:41:45;;;;;;;6.68;4.25;;;;;;;0.41;71.11;101880.69;4948411;28;20045;-82
2022/03/06 05:44:11;;;;;;;4.55;4.10;;;;;;;0.36;71.18;101879.56;4964424;28;20054;-82
2022/03/06 05:46:38;;;;;;;5.57;3.65;;;;;;;0.32;71.26;101881.97;4964551;28;20102;-84
2022/03/06 05:49:12;;;;;;;4.95;3.25;;;;;;;0.30;70.73;101881.03;4953998;28;20398;-81
2022/03/06 05:51:39;;;;;;;;;;;;;;;0.28;71.06;101884.31;4953226;28;20046;-84
2022/03/06 05:54:07;;;;;;;3.55;2.63;;;;;;;0.27;71.06;101891.13;4954649;28;19953;-82
2022/03/06 05:56:34;;;;;;;6.55;3.83;;;;;;;0.26;71.33;101889.41;4951001;28;20042;-81
2022/03/06 05:59:03;;;;;;;4.75;3.53;;;;;;;0.29;71.33;101891.25;4970681;28;20094;-81
2022/03/06 06:01:30;;;;;;;3.85;3.28;;;;;;;0.29;70.76;101894.69;4949028;28;20050;-81
2022/03/06 06:03:58;;;;;;;4.88;3.25;;;;;;;0.29;71.21;101899.84;4964761;28;20157;-81
2022/03/06 06:06:28;;;;;;;4.25;3.60;;;;;;;0.33;71.03;101903.47;4963063;28;20431;-81
2022/03/06 06:08:56;;;;;;;4.97;3.35;;;;;;;0.30;70.54;101904.19;4961466;28;20055;-82
2022/03/06 06:11:23;;;;;;;5.22;3.53;;;;;;;0.29;70.38;101906.69;4949438;28;20054;-81
2022/03/06 06:13:50;;;;;;;4.70;3.75;;;;;;;0.27;70.32;101908.31;4960939;28;20041;-82
2022/03/06 06:16:16;;;;;;;4.47;3.40;;;;;;;0.27;70.70;101903.16;4953592;28;20054;-82
2022/03/06 06:18:43;;;;;;;4.53;3.60;;;;;;;0.25;70.16;101908.22;4947323;28;20053;-82
2022/03/06 06:21:11;;;;;;;4.57;3.28;;;;;;;0.24;70.79;101900.41;4970327;28;20083;-81
2022/03/06 06:23:37;;;;;;;5.97;3.58;;;;;;;0.24;70.00;101909.03;4960958;28;20046;-83
2022/03/06 06:26:04;;;;;;;3.65;3.35;;;;;;;0.26;69.88;101909.09;4965396;28;20074;-84
2022/03/06 06:28:30;;;;;;;3.75;3.22;;;;;;;0.28;70.25;101920.38;4967827;28;20115;-83
2022/03/06 06:30:57;;;;;;;4.78;3.28;;;;;;;0.29;69.58;101910.16;4972000;28;20047;-82
2022/03/06 06:33:23;;;;;;;3.80;3.50;;;;;;;0.30;70.41;101909.34;4947315;28;20054;-82
2022/03/06 06:35:50;;;;;;;4.00;2.95;;;;;;;0.32;70.23;101914.59;4965289;28;20420;-82
2022/03/06 06:38:16;;;;;;;3.45;3.13;;;;;;;0.34;70.64;101918.13;4947468;28;20073;-81
2022/03/06 06:40:43;;;;;;;4.03;3.28;;;;;;;0.36;70.05;101915.63;4949500;28;20061;-81
2022/03/06 06:43:09;;;;;;;5.43;3.08;;;;;;;0.37;69.72;101913.13;4967142;28;20053;-81
2022/03/06 06:45:36;;;;;;;7.32;3.45;;;;;;;0.41;69.56;101917.63;4951277;28;20150;-81
2022/03/06 06:48:02;;;;;;;4.75;3.22;;;;;;;0.44;69.27;101917.81;4954931;28;20057;-84
2022/03/06 06:50:29;;;;;;;3.30;3.00;;;;;;;0.49;69.14;101928.34;4946340;28;20057;-81
2022/03/06 06:52:56;;;;;;;3.50;3.20;;;;;;;0.52;68.89;101928.50;4953406;28;20497;-84
2022/03/06 06:55:22;;;;;;;3.97;2.88;;;;;;;0.57;68.78;101931.34;4964469;28;20046;-81
2022/03/06 06:57:48;;;;;;;6.20;3.22;;;;;;;0.61;68.72;101931.59;4949637;28;20060;-82
2022/03/06 07:00:16;;;;;;;5.78;3.05;;;;;;;0.65;68.63;101928.38;4955602;28;20074;-81
2022/03/06 07:02:44;;;;;;;7.28;3.80;;;;;;;0.70;68.07;101933.75;4966777;28;20048;-81
2022/03/06 07:05:11;;;;;;;4.68;3.28;;;;;;;0.74;68.25;101934.78;4949044;28;20141;-85
2022/03/06 07:07:37;;;;;;;4.57;3.25;;;;;;;0.75;67.68;101932.28;4967221;28;20109;-85
2022/03/06 07:10:06;;;;;;;8.50;3.08;;;;;;;0.77;67.81;101938.41;4948596;28;20047;-83
2022/03/06 07:12:45;;;;;;;7.95;5.40;;;;;;;0.78;67.72;101937.63;4966290;28;20046;-84
2022/03/06 07:15:13;;;;;;;7.15;4.22;;;;;;;0.79;67.37;101934.22;4954956;28;20544;-84
2022/03/06 07:17:41;;;;;;;5.05;3.33;;;;;;;0.82;67.53;101943.78;4965868;28;20046;-84
2022/03/06 07:20:09;;;;;;;4.45;2.95;;;;;;;0.87;67.26;101946.63;4952002;28;20046;-83
2022/03/06 07:22:37;;;;;;;4.13;3.03;;;;;;;0.91;66.84;101951.13;4962642;28;20137;-85
2022/03/06 07:25:04;;;;;;;3.35;3.08;;;;;;;0.93;66.60;101945.25;4953874;28;20073;-85
2022/03/06 07:27:31;;;;;;;4.10;3.10;;;;;;;0.96;66.82;101947.97;4968555;28;20157;-86
2022/03/06 07:29:58;;;;;;;4.78;4.22;;;;;;;0.98;66.32;101950.66;4959980;28;20381;-85
2022/03/06 07:32:25;;;;;;;4.72;3.70;;;;;;;1.03;66.41;101962.09;4955454;28;20215;-84
2022/03/06 07:34:52;;;;;;;4.80;3.53;;;;;;;1.07;66.07;101958.84;4959812;28;20134;-84
2022/03/06 07:37:19;;;;;;;3.88;3.05;;;;;;;1.12;65.79;101971.97;4955594;28;20046;-84
2022/03/06 07:39:45;;;;;;;4.40;3.30;;;;;;;1.17;65.96;101967.94;4955681;28;20073;-86
2022/03/06 07:42:12;;;;;;;5.45;3.80;;;;;;;1.21;65.11;101972.44;4946633;28;20073;-84
2022/03/06 07:44:38;;;;;;;4.45;3.17;;;;;;;1.25;64.99;101976.97;4956188;28;20045;-83
2022/03/06 07:47:05;;;;;;;10.35;3.38;;;;;;;1.30;65.00;101980.66;4970237;28;20440;-85
2022/03/06 07:49:32;;;;;;;6.07;3.42;;;;;;;1.36;64.12;101979.19;4946478;28;20042;-84
2022/03/06 07:51:59;;;;;;;6.65;3.55;;;;;;;1.40;64.11;101982.00;4971132;28;20141;-84
2022/03/06 07:54:25;;;;;;;4.70;4.20;;;;;;;1.43;63.44;101982.13;4966276;28;20050;-85
2022/03/06 07:56:52;;;;;;;4.93;3.60;;;;;;;1.40;64.03;101991.44;4954441;28;20134;-84
2022/03/06 07:59:21;;;;;;;7.63;4.47;;;;;;;1.36;63.86;101990.38;4969688;28;20121;-84
2022/03/06 08:01:47;;;;;;;4.20;3.65;;;;;;;1.37;64.59;101994.75;4953986;28;20065;-84
2022/03/06 08:04:14;;;;;;;11.75;7.05;;;;;;;1.39;63.67;101995.69;4966304;28;20045;-83
2022/03/06 08:06:40;;;;;;;3.80;3.50;;;;;;;1.40;63.87;101997.47;4959755;28;20132;-83
2022/03/06 08:09:07;;;;;;;3.45;3.15;;;;;;;1.45;64.62;101989.97;4960820;28;20089;-85
2022/03/06 08:11:33;;;;;;;4.53;3.60;;;;;;;1.55;63.72;101994.78;4962680;28;20133;-85
2022/03/06 08:14:00;;;;;;;6.43;2.90;;;;;;;1.65;64.01;101993.53;4963618;28;20039;-83
2022/03/06 08:16:26;;;;;;;7.82;5.75;;;;;;;1.72;63.29;101995.63;4968812;28;20043;-83
2022/03/06 08:18:53;;;;;;;5.20;3.78;;;;;;;1.80;63.20;102002.03;4958648;28;20459;-84
2022/03/06 08:21:20;;;;;;;5.40;3.70;;;;;;;1.88;63.05;101998.91;4958026;28;20164;-83
2022/03/06 08:23:46;;;;;;;4.63;3.30;;;;;;;1.95;63.27;102003.56;4943735;28;20411;-84
2022/03/06 08:26:13;;;;;;;5.43;3.45;;;;;;;2.01;62.97;102008.13;4933857;28;20060;-84
2022/03/06 08:28:39;;;;;;;5.70;3.97;;;;;;;2.04;62.89;101997.97;4953588;28;20708;-83
2022/03/06 08:31:06;;;;;;;4.78;2.70;;;;;;;2.11;63.19;102006.09;4949816;28;20408;-83
2022/03/06 08:33:32;;;;;;;7.85;3.97;;;;;;;2.15;62.46;102009.69;4956884;28;20590;-84
2022/03/06 08:35:59;;;;;;;7.65;3.40;;;;;;;2.12;62.42;102009.53;4941437;28;20172;-84
2022/03/06 08:38:25;;;;;;;4.15;3.42;;;;;;;2.07;61.57;102003.28;4944675;28;20420;-84
2022/03/06 08:40:52;;;;;;;4.07;3.33;;;;;;;2.11;62.32;102016.41;4967156;28;20043;-83
2022/03/06 08:43:19;;;;;;;4.47;3.85;;;;;;;2.14;61.45;102015.69;4950430;28;20055;-84
2022/03/06 08:45:46;;;;;;;4.50;4.10;;;;;;;2.16;61.71;102011.44;4964456;28;20187;-84
2022/03/06 08:48:12;;;;;;;3.63;3.33;;;;;;;2.25;61.79;102011.00;4970002;28;20049;-84
2022/03/06 08:50:39;;;;;;;5.00;4.55;;;;;;;2.29;60.85;102019.00;4967394;28;20065;-85
2022/03/06 08:53:06;;;;;;;5.05;3.47;;;;;;;2.26;61.22;102012.78;4965737;28;20042;-84
2022/03/06 08:55:33;;;;;;;5.15;2.45;;;;;;;2.24;60.82;102019.56;4948477;28;20049;-84
2022/03/06 08:58:00;;;;;;;3.75;2.97;;;;;;;2.30;61.51;102018.16;4962159;28;20131;-84
2022/03/06 09:00:27;;;;;;;5.80;2.78;;;;;;;2.33;61.03;102020.00;4967778;28;20041;-83
2022/03/06 09:02:53;;;;;;;3.97;2.35;;;;;;;2.40;61.36;102024.66;4964412;28;20050;-83
2022/03/06 09:05:20;;;;;;;2.38;2.17;;;;;;;2.54;61.28;102014.94;4940372;28;20058;-84
2022/03/06 09:07:48;;;;;;;3.65;2.63;;;;;;;2.69;60.37;102016.47;4960285;28;20066;-84
2022/03/06 09:10:17;;;;;;;4.60;3.75;;;;;;;2.81;59.70;102017.00;4935530;28;20051;-84
2022/03/06 09:12:44;;;;;;;4.43;2.83;;;;;;;2.87;58.83;102006.94;4940543;28;20060;-84
2022/03/06 09:15:11;;;;;;;4.03;2.60;;;;;;;2.85;59.14;102013.75;4963342;28;20065;-84
2022/03/06 09:17:39;;;;;;;3.78;2.67;;;;;;;2.88;58.34;102016.47;4950059;28;20058;-84
2022/03/06 09:20:07;;;;;;;4.60;2.83;;;;;;;2.84;58.89;102011.97;4949517;28;20136;-84
2022/03/06 09:22:33;;;;;;;4.50;1.95;;;;;;;2.96;58.52;102014.25;4963102;28;20051;-84
2022/03/06 09:25:00;;;;;;;4.10;1.70;;;;;;;3.02;57.09;102014.47;4943340;28;20042;-85
2022/03/06 09:27:26;;;;;;;7.97;3.50;;;;;;;3.11;56.59;102014.88;4961524;28;20077;-84
2022/03/06 09:29:53;;;;;;;4.25;2.30;;;;;;;3.12;56.72;102011.50;4962889;28;20062;-85
2022/03/06 09:32:19;;;;;;;8.63;3.15;;;;;;;3.15;55.62;102015.91;4968477;28;20515;-84
2022/03/06 09:34:46;;;;;;;4.78;2.65;;;;;;;3.05;55.39;102017.22;4963976;28;20047;-84
2022/03/06 09:37:12;;;;;;;14.07;7.38;;;;;;;2.96;55.06;102015.13;4962577;28;20145;-84
2022/03/06 09:39:39;;;;;;;5.85;3.67;;;;;;;2.95;55.12;102015.94;4964192;28;20074;-85
2022/03/06 09:42:06;;;;;;;4.05;2.80;;;;;;;2.97;55.41;102021.16;4949159;28;20049;-84
2022/03/06 09:44:36;;;;;;;3.55;2.08;;;;;;;2.98;55.20;102028.97;4964626;28;20054;-84
2022/03/06 09:47:06;;;;;;;3.15;2.08;;;;;;;2.93;54.03;102022.75;4952784;28;20050;-83
2022/03/06 09:49:36;;;;;;;3.33;2.22;;;;;;;2.87;54.63;102043.16;4962259;28;20064;-85
2022/03/06 09:52:04;;;;;;;3.13;2.22;;;;;;;2.81;54.44;102036.00;4964366;28;20054;-84
2022/03/06 09:54:30;;;;;;;5.68;2.55;;;;;;;2.84;55.12;102034.38;4951382;28;20050;-84
2022/03/06 09:56:57;;;;;;;3.08;2.70;;;;;;;2.95;55.08;102035.75;4959377;28;20065;-84
2022/03/06 09:59:24;;;;;;;3.03;2.10;;;;;;;3.01;54.07;102027.38;4969442;28;20045;-83
2022/03/06 10:01:51;;;;;;;6.78;2.55;;;;;;;3.06;54.09;102038.81;4948541;28;23164;-84
2022/03/06 10:04:24;;;;;;;2.92;2.53;;;;;;;3.11;54.12;102037.31;4963059;28;20962;-83
2022/03/06 10:07:11;;;;;;;3.77;3.30;;;;;;;3.19;53.73;102032.47;4956189;28;20066;-83
2022/03/06 10:09:50;;;;;;;6.28;2.65;;;;;;;3.30;53.56;102034.69;4941974;28;20301;-83
2022/03/06 10:12:27;;;;;;;17.20;7.72;;;;;;;3.29;53.89;102030.31;4962859;28;20039;-83
2022/03/06 10:14:56;;;;;;;4.18;3.33;;;;;;;3.42;53.05;102031.75;4964051;28;20053;-84
2022/03/06 10:17:27;;;;;;;6.95;2.90;;;;;;;3.52;52.49;102032.13;4943624;28;20112;-84
2022/03/06 10:20:09;;;;;;;5.25;4.25;;;;;;;3.52;51.96;102026.94;4956793;28;20050;-84
2022/03/06 10:22:39;;;;;;;3.72;2.63;;;;;;;3.55;52.44;102035.75;4948258;28;20056;-83
2022/03/06 10:25:17;;;;;;;4.13;3.70;;;;;;;3.61;52.38;102028.25;4957945;28;20554;-83
2022/03/06 10:27:58;;;;;;;3.40;3.00;;;;;;;3.60;51.58;102028.19;4957530;28;20487;-83
2022/03/06 10:30:35;;;;;;;4.60;2.40;;;;;;;3.59;51.78;102019.50;4954971;28;20140;-84
2022/03/06 10:33:10;;;;;;;5.82;3.75;;;;;;;3.63;51.69;102025.72;4951527;28;20046;-84
2022/03/06 10:35:40;;;;;;;3.78;3.45;;;;;;;3.75;52.09;102030.50;4944605;28;20058;-84
2022/03/06 10:38:32;;;;;;;4.22;2.97;;;;;;;3.89;50.93;102016.41;4960876;28;20046;-84
2022/03/06 10:41:02;;;;;;;3.22;2.45;;;;;;;4.01;51.51;102023.78;4937627;28;20167;-84
2022/03/06 10:43:34;;;;;;;3.33;2.97;;;;;;;4.11;50.41;102014.69;4961783;28;20097;-85
2022/03/06 10:46:19;;;;;;;6.82;3.92;;;;;;;4.11;50.16;102019.88;4961770;28;20059;-86
2022/03/06 10:48:57;;;;;;;6.63;3.40;;;;;;;4.20;50.44;102022.81;4948457;28;20056;-83
2022/03/06 10:51:25;;;;;;;7.32;3.85;;;;;;;4.38;49.13;102021.75;4950969;28;20141;-85
2022/03/06 10:53:59;;;;;;;6.78;4.00;;;;;;;4.37;49.08;102023.47;4945495;28;20520;-85
2022/03/06 10:56:27;;;;;;;7.72;3.35;;;;;;;4.46;49.54;102021.22;4961527;28;20418;-85
2022/03/06 10:58:54;;;;;;;4.30;3.25;;;;;;;4.52;48.15;102025.75;4957409;28;20737;-83
2022/03/06 11:01:21;;;;;;;3.88;3.58;;;;;;;4.48;48.63;102026.47;4950443;28;20050;-84
2022/03/06 11:03:51;;;;;;;5.90;3.83;;;;;;;4.39;48.17;102020.94;4964487;28;20129;-84
2022/03/06 11:06:21;;;;;;;4.72;3.17;;;;;;;4.38;48.78;102016.56;4933621;28;20065;-84
2022/03/06 11:08:49;;;;;;;4.32;3.47;;;;;;;4.43;48.39;102020.22;4959704;28;20054;-84
2022/03/06 11:11:16;;;;;;;3.97;3.40;;;;;;;4.40;47.89;102025.31;4943524;28;20101;-85
2022/03/06 11:13:43;;;;;;;4.43;3.70;;;;;;;4.43;48.83;102025.41;4962581;28;20152;-84
2022/03/06 11:16:10;;;;;;;5.45;3.47;;;;;;;4.50;47.89;102022.25;4948701;28;20051;-84
2022/03/06 11:18:36;;;;;;;5.97;3.97;;;;;;;4.47;48.08;102023.00;4945785;28;20081;-84
2022/03/06 11:21:05;;;;;;;5.93;3.55;;;;;;;4.41;48.17;102022.75;4947650;28;20039;-84
2022/03/06 11:23:41;;;;;;;7.00;4.10;;;;;;;4.44;48.10;102022.00;4962977;28;20076;-85
2022/03/06 11:26:11;;;;;;;20.48;12.18;;;;;;;4.40;47.98;102021.00;4958675;28;20074;-84
2022/03/06 11:29:35;;;;;;;5.97;3.50;;;;;;;4.21;47.84;102022.00;4977063;28;20058;-84
2022/03/06 11:32:07;;;;;;;6.47;4.68;;;;;;;4.05;48.18;102020.50;4979293;28;20054;-84
2022/03/06 11:34:38;;;;;;;3.90;3.50;;;;;;;4.14;48.32;102020.84;4959966;28;20050;-85